Villa Los Pescadores, Puerto Rico
Current Conditions -  °F | °C
As of 2:56 PM on Friday 31 Oct 2014 (Local Time) from TJSJ Reporting Station
Broken Clouds Broken Clouds  
Wind Chill: 83°   Ceiling: 7000
Heat Index: 92°   Visibility: 10mi
Dew Point: 77°   Wind: 5mph
Humidity: 82%   Direction: NA
Pressure: 29.87"   Gusts: NA
Location:  18.4061°N, 66.3012°W
Report Text: TJSJ 311856Z VRB04KT 10SM FEW025 BKN070 28/25 A2987 RMK AO2 SLP113 SHRA DSNT W T02830250
Loading
Personal Weather Stations






























Interactive Weather Map
Tropical Storm Tracking
New forecast layout! Learn more

10-Day Weather Forecast

Advertisements
Track Severe Weather on mobile